sensor_id;sensor_type;location;lat;lon;timestamp;P1;durP1;ratioP1;P2;durP2;ratioP2
22963;SDS011;11648;49.306;6.934;2024-03-06T00:01:57;13.93;;;7.90;;
22963;SDS011;11648;49.306;6.934;2024-03-06T00:04:24;12.27;;;7.53;;
22963;SDS011;11648;49.306;6.934;2024-03-06T00:06:51;14.53;;;9.13;;
22963;SDS011;11648;49.306;6.934;2024-03-06T00:09:19;11.60;;;7.33;;
22963;SDS011;11648;49.306;6.934;2024-03-06T00:11:46;13.73;;;8.40;;
22963;SDS011;11648;49.306;6.934;2024-03-06T00:14:13;12.00;;;7.47;;
22963;SDS011;11648;49.306;6.934;2024-03-06T00:16:40;11.07;;;7.20;;
22963;SDS011;11648;49.306;6.934;2024-03-06T00:19:09;12.83;;;8.10;;
22963;SDS011;11648;49.306;6.934;2024-03-06T00:21:35;12.77;;;7.80;;
22963;SDS011;11648;49.306;6.934;2024-03-06T00:24:05;13.23;;;7.20;;
22963;SDS011;11648;49.306;6.934;2024-03-06T00:26:32;12.33;;;7.57;;
22963;SDS011;11648;49.306;6.934;2024-03-06T00:28:59;8.67;;;6.27;;
22963;SDS011;11648;49.306;6.934;2024-03-06T00:31:26;10.60;;;6.87;;
22963;SDS011;11648;49.306;6.934;2024-03-06T00:33:53;11.33;;;6.80;;
22963;SDS011;11648;49.306;6.934;2024-03-06T00:36:19;11.00;;;7.23;;
22963;SDS011;11648;49.306;6.934;2024-03-06T00:38:46;10.00;;;6.63;;
22963;SDS011;11648;49.306;6.934;2024-03-06T00:41:14;10.07;;;6.40;;
22963;SDS011;11648;49.306;6.934;2024-03-06T00:43:41;8.80;;;5.73;;
22963;SDS011;11648;49.306;6.934;2024-03-06T00:46:08;9.20;;;6.23;;
22963;SDS011;11648;49.306;6.934;2024-03-06T00:48:35;10.90;;;6.40;;
22963;SDS011;11648;49.306;6.934;2024-03-06T00:51:06;9.87;;;5.93;;
22963;SDS011;11648;49.306;6.934;2024-03-06T00:53:36;10.07;;;6.37;;
22963;SDS011;11648;49.306;6.934;2024-03-06T00:56:03;9.40;;;5.93;;
22963;SDS011;11648;49.306;6.934;2024-03-06T00:58:30;11.73;;;6.33;;
22963;SDS011;11648;49.306;6.934;2024-03-06T01:00:57;10.90;;;6.40;;
22963;SDS011;11648;49.306;6.934;2024-03-06T01:03:25;9.93;;;5.90;;
22963;SDS011;11648;49.306;6.934;2024-03-06T01:05:51;10.60;;;6.23;;
22963;SDS011;11648;49.306;6.934;2024-03-06T01:08:19;7.83;;;5.63;;
22963;SDS011;11648;49.306;6.934;2024-03-06T01:10:46;10.43;;;5.93;;
22963;SDS011;11648;49.306;6.934;2024-03-06T01:13:13;8.93;;;5.97;;
22963;SDS011;11648;49.306;6.934;2024-03-06T01:15:40;9.10;;;5.60;;
22963;SDS011;11648;49.306;6.934;2024-03-06T01:18:07;9.80;;;6.57;;
22963;SDS011;11648;49.306;6.934;2024-03-06T01:20:34;10.07;;;6.07;;
22963;SDS011;11648;49.306;6.934;2024-03-06T01:23:00;10.77;;;6.30;;
22963;SDS011;11648;49.306;6.934;2024-03-06T01:25:27;9.53;;;6.47;;
22963;SDS011;11648;49.306;6.934;2024-03-06T01:27:54;10.87;;;6.43;;
22963;SDS011;11648;49.306;6.934;2024-03-06T01:30:21;10.03;;;6.20;;
22963;SDS011;11648;49.306;6.934;2024-03-06T01:32:48;9.93;;;6.40;;
22963;SDS011;11648;49.306;6.934;2024-03-06T01:35:15;10.33;;;6.67;;
22963;SDS011;11648;49.306;6.934;2024-03-06T01:37:42;7.90;;;5.80;;
22963;SDS011;11648;49.306;6.934;2024-03-06T01:40:09;9.20;;;6.40;;
22963;SDS011;11648;49.306;6.934;2024-03-06T01:42:37;9.63;;;6.17;;
22963;SDS011;11648;49.306;6.934;2024-03-06T01:45:03;9.40;;;5.97;;
22963;SDS011;11648;49.306;6.934;2024-03-06T01:47:31;9.90;;;5.83;;
22963;SDS011;11648;49.306;6.934;2024-03-06T01:49:58;10.90;;;6.30;;
22963;SDS011;11648;49.306;6.934;2024-03-06T01:52:26;9.83;;;6.00;;
22963;SDS011;11648;49.306;6.934;2024-03-06T01:54:53;10.37;;;5.67;;
22963;SDS011;11648;49.306;6.934;2024-03-06T01:57:20;11.30;;;5.70;;
22963;SDS011;11648;49.306;6.934;2024-03-06T01:59:47;7.27;;;5.10;;
22963;SDS011;11648;49.306;6.934;2024-03-06T02:02:15;9.70;;;6.40;;
22963;SDS011;11648;49.306;6.934;2024-03-06T02:04:42;7.93;;;5.40;;
22963;SDS011;11648;49.306;6.934;2024-03-06T02:07:09;8.30;;;5.67;;
22963;SDS011;11648;49.306;6.934;2024-03-06T02:09:39;8.00;;;5.30;;
22963;SDS011;11648;49.306;6.934;2024-03-06T02:12:07;6.77;;;4.93;;
22963;SDS011;11648;49.306;6.934;2024-03-06T02:14:36;8.00;;;5.50;;
22963;SDS011;11648;49.306;6.934;2024-03-06T02:17:04;8.03;;;5.47;;
22963;SDS011;11648;49.306;6.934;2024-03-06T02:19:38;9.07;;;5.50;;
22963;SDS011;11648;49.306;6.934;2024-03-06T02:22:09;10.10;;;5.00;;
22963;SDS011;11648;49.306;6.934;2024-03-06T02:24:36;8.13;;;5.00;;
22963;SDS011;11648;49.306;6.934;2024-03-06T02:27:03;8.67;;;5.63;;
22963;SDS011;11648;49.306;6.934;2024-03-06T02:29:33;8.33;;;5.00;;
22963;SDS011;11648;49.306;6.934;2024-03-06T02:32:01;8.07;;;5.40;;
22963;SDS011;11648;49.306;6.934;2024-03-06T02:34:31;9.40;;;5.40;;
22963;SDS011;11648;49.306;6.934;2024-03-06T02:36:58;7.43;;;5.10;;
22963;SDS011;11648;49.306;6.934;2024-03-06T02:39:25;8.67;;;5.23;;
22963;SDS011;11648;49.306;6.934;2024-03-06T02:41:52;8.03;;;4.70;;
22963;SDS011;11648;49.306;6.934;2024-03-06T02:44:18;8.40;;;5.20;;
22963;SDS011;11648;49.306;6.934;2024-03-06T02:46:46;8.53;;;5.00;;
22963;SDS011;11648;49.306;6.934;2024-03-06T02:49:15;9.00;;;5.00;;
22963;SDS011;11648;49.306;6.934;2024-03-06T02:51:43;6.93;;;4.97;;
22963;SDS011;11648;49.306;6.934;2024-03-06T02:54:09;8.27;;;5.10;;
22963;SDS011;11648;49.306;6.934;2024-03-06T02:56:36;8.93;;;5.33;;
22963;SDS011;11648;49.306;6.934;2024-03-06T02:59:03;8.53;;;5.43;;
22963;SDS011;11648;49.306;6.934;2024-03-06T03:01:30;8.57;;;5.33;;
22963;SDS011;11648;49.306;6.934;2024-03-06T03:03:59;7.47;;;5.23;;
22963;SDS011;11648;49.306;6.934;2024-03-06T03:06:26;9.57;;;5.17;;
22963;SDS011;11648;49.306;6.934;2024-03-06T03:08:53;8.50;;;5.20;;
22963;SDS011;11648;49.306;6.934;2024-03-06T03:11:20;8.73;;;5.63;;
22963;SDS011;11648;49.306;6.934;2024-03-06T03:13:47;8.03;;;5.17;;
22963;SDS011;11648;49.306;6.934;2024-03-06T03:16:17;9.23;;;5.97;;
22963;SDS011;11648;49.306;6.934;2024-03-06T03:18:45;9.17;;;5.57;;
22963;SDS011;11648;49.306;6.934;2024-03-06T03:21:12;9.57;;;5.40;;
22963;SDS011;11648;49.306;6.934;2024-03-06T03:23:42;7.80;;;5.40;;
22963;SDS011;11648;49.306;6.934;2024-03-06T03:26:09;8.00;;;5.67;;
22963;SDS011;11648;49.306;6.934;2024-03-06T03:28:39;12.00;;;6.90;;
22963;SDS011;11648;49.306;6.934;2024-03-06T03:31:06;10.80;;;7.20;;
22963;SDS011;11648;49.306;6.934;2024-03-06T03:33:38;13.07;;;7.37;;
22963;SDS011;11648;49.306;6.934;2024-03-06T03:36:05;12.40;;;7.83;;
22963;SDS011;11648;49.306;6.934;2024-03-06T03:38:36;10.97;;;8.17;;
22963;SDS011;11648;49.306;6.934;2024-03-06T03:41:07;12.97;;;8.70;;
22963;SDS011;11648;49.306;6.934;2024-03-06T03:43:34;12.90;;;7.30;;
22963;SDS011;11648;49.306;6.934;2024-03-06T03:46:01;9.23;;;6.50;;
22963;SDS011;11648;49.306;6.934;2024-03-06T03:48:31;7.80;;;5.23;;
22963;SDS011;11648;49.306;6.934;2024-03-06T03:50:58;8.10;;;5.13;;
22963;SDS011;11648;49.306;6.934;2024-03-06T03:53:25;9.27;;;4.77;;
22963;SDS011;11648;49.306;6.934;2024-03-06T03:55:52;8.13;;;4.80;;
22963;SDS011;11648;49.306;6.934;2024-03-06T03:58:18;9.73;;;5.13;;
22963;SDS011;11648;49.306;6.934;2024-03-06T04:00:45;9.30;;;5.03;;
22963;SDS011;11648;49.306;6.934;2024-03-06T04:03:13;9.07;;;5.27;;
22963;SDS011;11648;49.306;6.934;2024-03-06T04:05:39;9.47;;;5.53;;
22963;SDS011;11648;49.306;6.934;2024-03-06T04:08:06;9.77;;;6.00;;
22963;SDS011;11648;49.306;6.934;2024-03-06T04:10:33;9.70;;;6.57;;
22963;SDS011;11648;49.306;6.934;2024-03-06T04:13:00;8.90;;;7.00;;
22963;SDS011;11648;49.306;6.934;2024-03-06T04:15:27;11.73;;;7.70;;
22963;SDS011;11648;49.306;6.934;2024-03-06T04:17:54;10.13;;;7.57;;
22963;SDS011;11648;49.306;6.934;2024-03-06T04:20:21;9.37;;;6.77;;
22963;SDS011;11648;49.306;6.934;2024-03-06T04:22:48;11.43;;;7.23;;
22963;SDS011;11648;49.306;6.934;2024-03-06T04:25:17;9.60;;;6.70;;
22963;SDS011;11648;49.306;6.934;2024-03-06T04:27:44;12.60;;;6.50;;
22963;SDS011;11648;49.306;6.934;2024-03-06T04:30:11;9.63;;;6.37;;
22963;SDS011;11648;49.306;6.934;2024-03-06T04:32:38;10.37;;;6.80;;
22963;SDS011;11648;49.306;6.934;2024-03-06T04:35:05;10.23;;;6.57;;
22963;SDS011;11648;49.306;6.934;2024-03-06T04:37:33;9.30;;;6.50;;
22963;SDS011;11648;49.306;6.934;2024-03-06T04:40:01;10.13;;;7.07;;
22963;SDS011;11648;49.306;6.934;2024-03-06T04:42:29;12.97;;;7.73;;
22963;SDS011;11648;49.306;6.934;2024-03-06T04:44:56;12.17;;;7.77;;
22963;SDS011;11648;49.306;6.934;2024-03-06T04:47:23;10.43;;;8.10;;
22963;SDS011;11648;49.306;6.934;2024-03-06T04:49:54;13.70;;;7.50;;
22963;SDS011;11648;49.306;6.934;2024-03-06T04:52:21;11.13;;;7.43;;
22963;SDS011;11648;49.306;6.934;2024-03-06T04:54:56;10.57;;;7.37;;
22963;SDS011;11648;49.306;6.934;2024-03-06T04:57:23;10.50;;;7.70;;
22963;SDS011;11648;49.306;6.934;2024-03-06T04:59:50;11.30;;;7.00;;
22963;SDS011;11648;49.306;6.934;2024-03-06T05:02:17;9.60;;;6.97;;
22963;SDS011;11648;49.306;6.934;2024-03-06T05:04:44;13.00;;;8.83;;
22963;SDS011;11648;49.306;6.934;2024-03-06T05:07:31;12.97;;;7.27;;
22963;SDS011;11648;49.306;6.934;2024-03-06T05:10:16;12.07;;;7.30;;
22963;SDS011;11648;49.306;6.934;2024-03-06T05:13:00;9.93;;;7.80;;
22963;SDS011;11648;49.306;6.934;2024-03-06T05:15:44;12.23;;;7.70;;
22963;SDS011;11648;49.306;6.934;2024-03-06T05:18:29;10.40;;;7.40;;
22963;SDS011;11648;49.306;6.934;2024-03-06T05:21:14;11.47;;;6.40;;
22963;SDS011;11648;49.306;6.934;2024-03-06T05:23:58;11.43;;;7.80;;
22963;SDS011;11648;49.306;6.934;2024-03-06T05:26:42;14.83;;;9.57;;
22963;SDS011;11648;49.306;6.934;2024-03-06T05:29:26;16.07;;;10.53;;
22963;SDS011;11648;49.306;6.934;2024-03-06T05:32:11;15.97;;;9.83;;
22963;SDS011;11648;49.306;6.934;2024-03-06T05:34:56;11.97;;;8.00;;
22963;SDS011;11648;49.306;6.934;2024-03-06T05:37:42;11.30;;;7.23;;
22963;SDS011;11648;49.306;6.934;2024-03-06T05:40:27;13.03;;;7.77;;
22963;SDS011;11648;49.306;6.934;2024-03-06T05:43:11;12.83;;;7.63;;
22963;SDS011;11648;49.306;6.934;2024-03-06T05:45:56;10.90;;;7.87;;
22963;SDS011;11648;49.306;6.934;2024-03-06T05:48:40;12.20;;;7.70;;
22963;SDS011;11648;49.306;6.934;2024-03-06T05:51:24;9.83;;;7.87;;
22963;SDS011;11648;49.306;6.934;2024-03-06T05:54:08;13.03;;;7.80;;
22963;SDS011;11648;49.306;6.934;2024-03-06T05:56:53;12.97;;;8.20;;
22963;SDS011;11648;49.306;6.934;2024-03-06T05:59:37;15.53;;;7.77;;
22963;SDS011;11648;49.306;6.934;2024-03-06T06:02:06;12.63;;;7.77;;
22963;SDS011;11648;49.306;6.934;2024-03-06T06:04:33;11.30;;;7.43;;
22963;SDS011;11648;49.306;6.934;2024-03-06T06:07:06;11.87;;;7.20;;
22963;SDS011;11648;49.306;6.934;2024-03-06T06:09:33;13.37;;;7.03;;
22963;SDS011;11648;49.306;6.934;2024-03-06T06:12:00;12.50;;;7.80;;
22963;SDS011;11648;49.306;6.934;2024-03-06T06:14:27;11.50;;;7.33;;
22963;SDS011;11648;49.306;6.934;2024-03-06T06:16:56;11.80;;;6.70;;
22963;SDS011;11648;49.306;6.934;2024-03-06T06:19:23;10.67;;;7.30;;
22963;SDS011;11648;49.306;6.934;2024-03-06T06:21:53;12.03;;;7.23;;
22963;SDS011;11648;49.306;6.934;2024-03-06T06:24:20;10.43;;;6.87;;
22963;SDS011;11648;49.306;6.934;2024-03-06T06:26:47;12.33;;;7.30;;
22963;SDS011;11648;49.306;6.934;2024-03-06T06:29:14;12.83;;;7.93;;
22963;SDS011;11648;49.306;6.934;2024-03-06T06:31:41;14.43;;;8.13;;
22963;SDS011;11648;49.306;6.934;2024-03-06T06:34:08;14.27;;;8.53;;
22963;SDS011;11648;49.306;6.934;2024-03-06T06:36:35;11.53;;;7.20;;
22963;SDS011;11648;49.306;6.934;2024-03-06T06:39:04;11.53;;;6.97;;
22963;SDS011;11648;49.306;6.934;2024-03-06T06:41:33;14.80;;;8.80;;
22963;SDS011;11648;49.306;6.934;2024-03-06T06:44:00;13.63;;;8.20;;
22963;SDS011;11648;49.306;6.934;2024-03-06T06:46:27;12.47;;;8.67;;
22963;SDS011;11648;49.306;6.934;2024-03-06T06:48:54;12.73;;;8.50;;
22963;SDS011;11648;49.306;6.934;2024-03-06T06:51:21;12.83;;;7.93;;
22963;SDS011;11648;49.306;6.934;2024-03-06T06:53:49;13.93;;;8.10;;
22963;SDS011;11648;49.306;6.934;2024-03-06T06:56:16;10.87;;;7.97;;
22963;SDS011;11648;49.306;6.934;2024-03-06T06:58:43;12.90;;;7.97;;
22963;SDS011;11648;49.306;6.934;2024-03-06T07:01:10;14.37;;;8.53;;
22963;SDS011;11648;49.306;6.934;2024-03-06T07:03:37;11.87;;;7.53;;
22963;SDS011;11648;49.306;6.934;2024-03-06T07:06:04;14.17;;;8.13;;
22963;SDS011;11648;49.306;6.934;2024-03-06T07:08:31;12.50;;;7.00;;
22963;SDS011;11648;49.306;6.934;2024-03-06T07:10:58;13.80;;;7.50;;
22963;SDS011;11648;49.306;6.934;2024-03-06T07:13:25;13.53;;;8.43;;
22963;SDS011;11648;49.306;6.934;2024-03-06T07:15:52;12.10;;;7.73;;
22963;SDS011;11648;49.306;6.934;2024-03-06T07:18:19;10.60;;;7.67;;
22963;SDS011;11648;49.306;6.934;2024-03-06T07:20:46;12.97;;;7.70;;
22963;SDS011;11648;49.306;6.934;2024-03-06T07:23:14;8.60;;;6.33;;
22963;SDS011;11648;49.306;6.934;2024-03-06T07:25:40;13.97;;;9.33;;
22963;SDS011;11648;49.306;6.934;2024-03-06T07:28:07;15.10;;;8.27;;
22963;SDS011;11648;49.306;6.934;2024-03-06T07:30:35;11.83;;;7.43;;
22963;SDS011;11648;49.306;6.934;2024-03-06T07:33:02;12.50;;;7.43;;
22963;SDS011;11648;49.306;6.934;2024-03-06T07:35:29;11.37;;;7.57;;
22963;SDS011;11648;49.306;6.934;2024-03-06T07:37:56;10.70;;;7.70;;
22963;SDS011;11648;49.306;6.934;2024-03-06T07:40:23;13.20;;;8.30;;
22963;SDS011;11648;49.306;6.934;2024-03-06T07:42:50;15.47;;;8.13;;
22963;SDS011;11648;49.306;6.934;2024-03-06T07:45:17;12.57;;;8.33;;
22963;SDS011;11648;49.306;6.934;2024-03-06T07:47:44;13.53;;;8.10;;
22963;SDS011;11648;49.306;6.934;2024-03-06T07:50:11;12.47;;;8.07;;
22963;SDS011;11648;49.306;6.934;2024-03-06T07:52:39;12.93;;;8.57;;
22963;SDS011;11648;49.306;6.934;2024-03-06T07:55:06;14.37;;;8.03;;
22963;SDS011;11648;49.306;6.934;2024-03-06T07:57:33;10.67;;;7.90;;
22963;SDS011;11648;49.306;6.934;2024-03-06T08:00:00;14.27;;;8.60;;
22963;SDS011;11648;49.306;6.934;2024-03-06T08:02:27;10.17;;;8.00;;
22963;SDS011;11648;49.306;6.934;2024-03-06T08:04:54;13.90;;;8.43;;
22963;SDS011;11648;49.306;6.934;2024-03-06T08:07:21;11.60;;;7.47;;
22963;SDS011;11648;49.306;6.934;2024-03-06T08:09:48;9.80;;;7.27;;
22963;SDS011;11648;49.306;6.934;2024-03-06T08:12:15;10.53;;;7.17;;
22963;SDS011;11648;49.306;6.934;2024-03-06T08:14:42;10.70;;;7.20;;
22963;SDS011;11648;49.306;6.934;2024-03-06T08:17:09;11.93;;;7.90;;
22963;SDS011;11648;49.306;6.934;2024-03-06T08:19:36;9.53;;;6.67;;
22963;SDS011;11648;49.306;6.934;2024-03-06T08:22:02;10.40;;;7.10;;
22963;SDS011;11648;49.306;6.934;2024-03-06T08:24:32;9.90;;;7.33;;
22963;SDS011;11648;49.306;6.934;2024-03-06T08:26:59;9.10;;;6.77;;
22963;SDS011;11648;49.306;6.934;2024-03-06T08:29:26;8.53;;;6.07;;
22963;SDS011;11648;49.306;6.934;2024-03-06T08:31:54;8.50;;;6.67;;
22963;SDS011;11648;49.306;6.934;2024-03-06T08:34:24;8.73;;;6.53;;
22963;SDS011;11648;49.306;6.934;2024-03-06T08:36:51;10.30;;;7.73;;
22963;SDS011;11648;49.306;6.934;2024-03-06T08:39:19;12.73;;;8.23;;
22963;SDS011;11648;49.306;6.934;2024-03-06T08:41:46;14.33;;;8.47;;
22963;SDS011;11648;49.306;6.934;2024-03-06T08:44:13;10.65;;;7.35;;
22963;SDS011;11648;49.306;6.934;2024-03-06T08:46:40;10.98;;;6.97;;
22963;SDS011;11648;49.306;6.934;2024-03-06T08:49:08;10.43;;;6.80;;
22963;SDS011;11648;49.306;6.934;2024-03-06T08:51:36;11.52;;;6.18;;
22963;SDS011;11648;49.306;6.934;2024-03-06T08:54:03;8.48;;;4.80;;
22963;SDS011;11648;49.306;6.934;2024-03-06T08:56:30;6.13;;;4.25;;
22963;SDS011;11648;49.306;6.934;2024-03-06T08:58:57;9.73;;;5.68;;
22963;SDS011;11648;49.306;6.934;2024-03-06T09:01:24;9.23;;;5.55;;
22963;SDS011;11648;49.306;6.934;2024-03-06T09:03:52;7.45;;;5.57;;
22963;SDS011;11648;49.306;6.934;2024-03-06T09:06:19;6.88;;;5.18;;
22963;SDS011;11648;49.306;6.934;2024-03-06T09:08:45;8.43;;;5.18;;
22963;SDS011;11648;49.306;6.934;2024-03-06T09:11:15;9.55;;;6.47;;
22963;SDS011;11648;49.306;6.934;2024-03-06T09:13:42;9.88;;;6.70;;
22963;SDS011;11648;49.306;6.934;2024-03-06T09:16:09;10.70;;;6.80;;
22963;SDS011;11648;49.306;6.934;2024-03-06T09:18:36;10.03;;;6.97;;
22963;SDS011;11648;49.306;6.934;2024-03-06T09:21:03;10.33;;;7.10;;
22963;SDS011;11648;49.306;6.934;2024-03-06T09:23:30;10.73;;;7.50;;
22963;SDS011;11648;49.306;6.934;2024-03-06T09:25:57;12.10;;;8.10;;
22963;SDS011;11648;49.306;6.934;2024-03-06T09:28:24;11.80;;;7.20;;
22963;SDS011;11648;49.306;6.934;2024-03-06T09:30:51;9.87;;;6.60;;
22963;SDS011;11648;49.306;6.934;2024-03-06T09:33:18;9.90;;;7.40;;
22963;SDS011;11648;49.306;6.934;2024-03-06T09:35:44;10.13;;;5.93;;
22963;SDS011;11648;49.306;6.934;2024-03-06T09:38:12;12.40;;;7.70;;
22963;SDS011;11648;49.306;6.934;2024-03-06T09:40:44;11.57;;;6.80;;
22963;SDS011;11648;49.306;6.934;2024-03-06T09:43:12;9.80;;;6.60;;
22963;SDS011;11648;49.306;6.934;2024-03-06T09:45:39;9.50;;;6.80;;
22963;SDS011;11648;49.306;6.934;2024-03-06T09:48:07;10.93;;;6.53;;
22963;SDS011;11648;49.306;6.934;2024-03-06T09:50:35;8.20;;;6.10;;
22963;SDS011;11648;49.306;6.934;2024-03-06T09:53:10;9.65;;;6.05;;
22963;SDS011;11648;49.306;6.934;2024-03-06T09:55:41;8.40;;;6.43;;
22963;SDS011;11648;49.306;6.934;2024-03-06T09:58:09;10.57;;;6.68;;
22963;SDS011;11648;49.306;6.934;2024-03-06T10:00:36;10.75;;;6.50;;
22963;SDS011;11648;49.306;6.934;2024-03-06T10:03:03;8.52;;;5.65;;
22963;SDS011;11648;49.306;6.934;2024-03-06T10:05:35;9.40;;;6.88;;
22963;SDS011;11648;49.306;6.934;2024-03-06T10:08:02;11.70;;;6.75;;
22963;SDS011;11648;49.306;6.934;2024-03-06T10:10:30;8.33;;;5.97;;
22963;SDS011;11648;49.306;6.934;2024-03-06T10:12:57;8.70;;;6.30;;
22963;SDS011;11648;49.306;6.934;2024-03-06T10:15:28;11.57;;;6.47;;
22963;SDS011;11648;49.306;6.934;2024-03-06T10:18:14;11.47;;;6.50;;
22963;SDS011;11648;49.306;6.934;2024-03-06T10:20:45;12.43;;;6.63;;
22963;SDS011;11648;49.306;6.934;2024-03-06T10:23:12;9.63;;;5.83;;
22963;SDS011;11648;49.306;6.934;2024-03-06T10:25:39;10.60;;;6.63;;
22963;SDS011;11648;49.306;6.934;2024-03-06T10:28:07;9.10;;;5.60;;
22963;SDS011;11648;49.306;6.934;2024-03-06T10:30:38;10.73;;;6.30;;
22963;SDS011;11648;49.306;6.934;2024-03-06T10:33:09;8.55;;;5.90;;
22963;SDS011;11648;49.306;6.934;2024-03-06T10:35:42;7.75;;;5.68;;
22963;SDS011;11648;49.306;6.934;2024-03-06T10:38:10;8.90;;;6.43;;
22963;SDS011;11648;49.306;6.934;2024-03-06T10:40:38;8.65;;;5.97;;
22963;SDS011;11648;49.306;6.934;2024-03-06T10:43:09;11.65;;;6.60;;
22963;SDS011;11648;49.306;6.934;2024-03-06T10:48:14;10.52;;;6.70;;
22963;SDS011;11648;49.306;6.934;2024-03-06T10:50:43;12.95;;;7.60;;
22963;SDS011;11648;49.306;6.934;2024-03-06T10:53:12;13.77;;;8.77;;
22963;SDS011;11648;49.306;6.934;2024-03-06T10:55:49;12.65;;;8.52;;
22963;SDS011;11648;49.306;6.934;2024-03-06T10:58:16;15.60;;;8.18;;
22963;SDS011;11648;49.306;6.934;2024-03-06T11:00:46;13.38;;;8.50;;
22963;SDS011;11648;49.306;6.934;2024-03-06T11:03:16;16.10;;;9.98;;
22963;SDS011;11648;49.306;6.934;2024-03-06T11:05:44;12.07;;;7.88;;
22963;SDS011;11648;49.306;6.934;2024-03-06T11:08:15;13.88;;;7.70;;
22963;SDS011;11648;49.306;6.934;2024-03-06T11:10:43;12.95;;;8.25;;
22963;SDS011;11648;49.306;6.934;2024-03-06T11:15:46;10.50;;;6.30;;
22963;SDS011;11648;49.306;6.934;2024-03-06T11:23:32;14.13;;;8.50;;
22963;SDS011;11648;49.306;6.934;2024-03-06T11:26:03;17.20;;;8.80;;
22963;SDS011;11648;49.306;6.934;2024-03-06T11:28:34;18.67;;;8.63;;
22963;SDS011;11648;49.306;6.934;2024-03-06T11:31:04;14.03;;;8.20;;
22963;SDS011;11648;49.306;6.934;2024-03-06T11:33:39;15.27;;;6.90;;
22963;SDS011;11648;49.306;6.934;2024-03-06T11:36:14;12.70;;;6.57;;
22963;SDS011;11648;49.306;6.934;2024-03-06T11:41:20;12.27;;;6.17;;
22963;SDS011;11648;49.306;6.934;2024-03-06T11:43:51;13.00;;;7.03;;
22963;SDS011;11648;49.306;6.934;2024-03-06T11:46:23;11.87;;;6.00;;
22963;SDS011;11648;49.306;6.934;2024-03-06T11:49:14;13.13;;;5.17;;
22963;SDS011;11648;49.306;6.934;2024-03-06T11:51:47;8.27;;;4.67;;
22963;SDS011;11648;49.306;6.934;2024-03-06T11:54:15;10.47;;;4.67;;
22963;SDS011;11648;49.306;6.934;2024-03-06T11:56:44;9.17;;;4.73;;
22963;SDS011;11648;49.306;6.934;2024-03-06T11:59:14;11.33;;;5.07;;
22963;SDS011;11648;49.306;6.934;2024-03-06T12:01:41;11.07;;;4.40;;
22963;SDS011;11648;49.306;6.934;2024-03-06T12:04:08;12.73;;;5.13;;
22963;SDS011;11648;49.306;6.934;2024-03-06T12:06:36;9.90;;;5.00;;
22963;SDS011;11648;49.306;6.934;2024-03-06T12:09:04;9.23;;;4.70;;
22963;SDS011;11648;49.306;6.934;2024-03-06T12:11:31;9.83;;;5.37;;
22963;SDS011;11648;49.306;6.934;2024-03-06T12:13:58;11.00;;;4.73;;
22963;SDS011;11648;49.306;6.934;2024-03-06T12:16:25;10.03;;;5.17;;
22963;SDS011;11648;49.306;6.934;2024-03-06T12:18:55;9.83;;;5.17;;
22963;SDS011;11648;49.306;6.934;2024-03-06T12:21:33;10.17;;;4.57;;
22963;SDS011;11648;49.306;6.934;2024-03-06T12:24:01;10.80;;;4.50;;
22963;SDS011;11648;49.306;6.934;2024-03-06T12:26:32;9.67;;;4.47;;
22963;SDS011;11648;49.306;6.934;2024-03-06T12:29:09;8.80;;;4.10;;
22963;SDS011;11648;49.306;6.934;2024-03-06T12:31:37;7.90;;;3.83;;
22963;SDS011;11648;49.306;6.934;2024-03-06T12:34:14;9.23;;;3.43;;
22963;SDS011;11648;49.306;6.934;2024-03-06T12:36:44;8.20;;;3.00;;
22963;SDS011;11648;49.306;6.934;2024-03-06T12:39:14;7.53;;;3.00;;
22963;SDS011;11648;49.306;6.934;2024-03-06T12:41:44;7.20;;;3.00;;
22963;SDS011;11648;49.306;6.934;2024-03-06T12:44:12;5.63;;;2.80;;
22963;SDS011;11648;49.306;6.934;2024-03-06T12:46:38;6.60;;;2.80;;
22963;SDS011;11648;49.306;6.934;2024-03-06T12:49:05;6.43;;;2.70;;
22963;SDS011;11648;49.306;6.934;2024-03-06T12:51:32;4.63;;;2.20;;
22963;SDS011;11648;49.306;6.934;2024-03-06T12:53:59;7.10;;;2.53;;
22963;SDS011;11648;49.306;6.934;2024-03-06T12:56:26;6.33;;;2.20;;
22963;SDS011;11648;49.306;6.934;2024-03-06T12:58:53;5.90;;;2.60;;
22963;SDS011;11648;49.306;6.934;2024-03-06T13:01:20;5.23;;;1.93;;
22963;SDS011;11648;49.306;6.934;2024-03-06T13:03:47;4.10;;;1.70;;
22963;SDS011;11648;49.306;6.934;2024-03-06T13:06:15;4.13;;;1.90;;
22963;SDS011;11648;49.306;6.934;2024-03-06T13:08:42;3.70;;;1.73;;
22963;SDS011;11648;49.306;6.934;2024-03-06T13:11:09;6.07;;;2.50;;
22963;SDS011;11648;49.306;6.934;2024-03-06T13:13:36;4.37;;;1.83;;
22963;SDS011;11648;49.306;6.934;2024-03-06T13:16:03;6.90;;;2.30;;
22963;SDS011;11648;49.306;6.934;2024-03-06T13:18:34;5.13;;;2.13;;
22963;SDS011;11648;49.306;6.934;2024-03-06T13:21:01;7.37;;;2.23;;
22963;SDS011;11648;49.306;6.934;2024-03-06T13:23:28;4.23;;;1.80;;
22963;SDS011;11648;49.306;6.934;2024-03-06T13:25:55;4.93;;;1.83;;
22963;SDS011;11648;49.306;6.934;2024-03-06T13:28:22;4.60;;;1.70;;
22963;SDS011;11648;49.306;6.934;2024-03-06T13:30:49;4.97;;;1.70;;
22963;SDS011;11648;49.306;6.934;2024-03-06T13:33:17;3.43;;;1.53;;
22963;SDS011;11648;49.306;6.934;2024-03-06T13:35:44;7.10;;;1.80;;
22963;SDS011;11648;49.306;6.934;2024-03-06T13:38:11;5.50;;;1.93;;
22963;SDS011;11648;49.306;6.934;2024-03-06T13:40:37;4.60;;;2.13;;
22963;SDS011;11648;49.306;6.934;2024-03-06T13:43:06;7.23;;;2.00;;
22963;SDS011;11648;49.306;6.934;2024-03-06T13:45:33;4.77;;;2.00;;
22963;SDS011;11648;49.306;6.934;2024-03-06T13:48:00;5.83;;;1.73;;
22963;SDS011;11648;49.306;6.934;2024-03-06T13:50:27;3.93;;;1.63;;
22963;SDS011;11648;49.306;6.934;2024-03-06T13:52:55;4.70;;;1.50;;
22963;SDS011;11648;49.306;6.934;2024-03-06T13:55:22;4.80;;;1.70;;
22963;SDS011;11648;49.306;6.934;2024-03-06T13:57:49;5.73;;;1.73;;
22963;SDS011;11648;49.306;6.934;2024-03-06T14:00:16;5.20;;;1.70;;
22963;SDS011;11648;49.306;6.934;2024-03-06T14:02:45;3.33;;;1.90;;
22963;SDS011;11648;49.306;6.934;2024-03-06T14:05:12;3.67;;;1.50;;
22963;SDS011;11648;49.306;6.934;2024-03-06T14:07:41;4.07;;;1.60;;
22963;SDS011;11648;49.306;6.934;2024-03-06T14:10:12;4.50;;;1.53;;
22963;SDS011;11648;49.306;6.934;2024-03-06T14:12:40;4.20;;;1.60;;
22963;SDS011;11648;49.306;6.934;2024-03-06T14:15:09;5.07;;;1.90;;
22963;SDS011;11648;49.306;6.934;2024-03-06T14:17:39;8.70;;;2.03;;
22963;SDS011;11648;49.306;6.934;2024-03-06T14:20:07;5.40;;;1.87;;
22963;SDS011;11648;49.306;6.934;2024-03-06T14:22:35;4.33;;;1.87;;
22963;SDS011;11648;49.306;6.934;2024-03-06T14:25:04;6.00;;;2.10;;
22963;SDS011;11648;49.306;6.934;2024-03-06T14:27:32;3.97;;;1.90;;
22963;SDS011;11648;49.306;6.934;2024-03-06T14:29:58;5.27;;;1.87;;
22963;SDS011;11648;49.306;6.934;2024-03-06T14:32:25;4.50;;;1.80;;
22963;SDS011;11648;49.306;6.934;2024-03-06T14:34:52;5.10;;;1.60;;
22963;SDS011;11648;49.306;6.934;2024-03-06T14:37:19;4.67;;;2.33;;
22963;SDS011;11648;49.306;6.934;2024-03-06T14:39:46;5.20;;;2.10;;
22963;SDS011;11648;49.306;6.934;2024-03-06T14:42:13;4.73;;;1.77;;
22963;SDS011;11648;49.306;6.934;2024-03-06T14:44:41;5.57;;;1.63;;
22963;SDS011;11648;49.306;6.934;2024-03-06T14:47:10;5.67;;;1.73;;
22963;SDS011;11648;49.306;6.934;2024-03-06T14:49:37;4.00;;;1.63;;
22963;SDS011;11648;49.306;6.934;2024-03-06T14:52:03;5.13;;;1.97;;
22963;SDS011;11648;49.306;6.934;2024-03-06T14:54:31;3.70;;;1.70;;
22963;SDS011;11648;49.306;6.934;2024-03-06T14:56:58;6.37;;;1.97;;
22963;SDS011;11648;49.306;6.934;2024-03-06T14:59:25;5.60;;;1.73;;
22963;SDS011;11648;49.306;6.934;2024-03-06T15:01:52;5.80;;;2.20;;
22963;SDS011;11648;49.306;6.934;2024-03-06T15:04:19;7.83;;;2.37;;